sensor_id;sensor_type;location;lat;lon;timestamp;pressure;altitude;pressure_sealevel;temperature;humidity
60583;BME280;46415;47.536;19.066;2023-05-02T00:00:45;-18528.78;;;11.02;83.54
60583;BME280;46415;47.536;19.066;2023-05-02T00:03:48;-18532.19;;;11.15;84.04
60583;BME280;46415;47.536;19.066;2023-05-02T00:06:54;-18533.97;;;11.21;83.60
60583;BME280;46415;47.536;19.066;2023-05-02T00:09:57;-18535.47;;;11.27;84.20
60583;BME280;46415;47.536;19.066;2023-05-02T00:13:00;-18535.88;;;11.28;84.39
60583;BME280;46415;47.536;19.066;2023-05-02T00:16:03;-18536.03;;;11.29;83.45
60583;BME280;46415;47.536;19.066;2023-05-02T00:19:06;-18534.78;;;11.24;84.90
60583;BME280;46415;47.536;19.066;2023-05-02T00:22:09;-18534.38;;;11.23;83.99
60583;BME280;46415;47.536;19.066;2023-05-02T00:25:12;-18534.53;;;11.23;82.48
60583;BME280;46415;47.536;19.066;2023-05-02T00:28:18;-18533.00;;;11.18;82.82
60583;BME280;46415;47.536;19.066;2023-05-02T00:31:21;-18533.69;;;11.20;83.00
60583;BME280;46415;47.536;19.066;2023-05-02T00:34:28;-18536.03;;;11.29;80.79
60583;BME280;46415;47.536;19.066;2023-05-02T00:37:32;-18539.31;;;11.41;79.00
60583;BME280;46415;47.536;19.066;2023-05-02T00:40:45;-18539.59;;;11.42;79.78
60583;BME280;46415;47.536;19.066;2023-05-02T00:43:49;-18539.16;;;11.40;80.97
60583;BME280;46415;47.536;19.066;2023-05-02T00:46:53;-18537.25;;;11.33;79.90
60583;BME280;46415;47.536;19.066;2023-05-02T00:49:55;-18535.88;;;11.28;81.40
60583;BME280;46415;47.536;19.066;2023-05-02T00:52:59;-18537.81;;;11.35;79.50
60583;BME280;46415;47.536;19.066;2023-05-02T00:56:03;-18538.91;;;11.39;78.14
60583;BME280;46415;47.536;19.066;2023-05-02T00:59:07;-18538.75;;;11.39;78.58
60583;BME280;46415;47.536;19.066;2023-05-02T01:02:21;-18539.03;;;11.40;79.42
60583;BME280;46415;47.536;19.066;2023-05-02T01:05:35;-18540.69;;;11.46;79.30
60583;BME280;46415;47.536;19.066;2023-05-02T01:08:48;-18543.13;;;11.55;76.70
60583;BME280;46415;47.536;19.066;2023-05-02T01:15:04;-18544.66;;;11.61;77.48
60583;BME280;46415;47.536;19.066;2023-05-02T01:18:08;-18546.44;;;11.67;76.31
60583;BME280;46415;47.536;19.066;2023-05-02T01:21:12;-18546.97;;;11.69;76.20
60583;BME280;46415;47.536;19.066;2023-05-02T01:24:23;-18545.31;;;11.63;77.68
60583;BME280;46415;47.536;19.066;2023-05-02T01:27:40;-18544.38;;;11.60;79.04
60583;BME280;46415;47.536;19.066;2023-05-02T01:30:48;-18543.41;;;11.56;81.04
60583;BME280;46415;47.536;19.066;2023-05-02T01:33:54;-18548.06;;;11.73;76.62
60583;BME280;46415;47.536;19.066;2023-05-02T01:36:59;-18546.84;;;11.69;76.07
60583;BME280;46415;47.536;19.066;2023-05-02T01:40:04;-18545.06;;;11.62;76.95
60583;BME280;46415;47.536;19.066;2023-05-02T01:43:10;-18542.72;;;11.54;76.82
60583;BME280;46415;47.536;19.066;2023-05-02T01:46:14;-18539.84;;;11.43;76.77
60583;BME280;46415;47.536;19.066;2023-05-02T01:49:18;-18537.13;;;11.33;76.64
60583;BME280;46415;47.536;19.066;2023-05-02T01:52:21;-18538.91;;;11.39;75.94
60583;BME280;46415;47.536;19.066;2023-05-02T01:55:26;-18536.03;;;11.29;78.81
60583;BME280;46415;47.536;19.066;2023-05-02T01:58:31;-18537.53;;;11.34;74.56
60583;BME280;46415;47.536;19.066;2023-05-02T02:01:37;-18539.03;;;11.40;74.47
60583;BME280;46415;47.536;19.066;2023-05-02T02:04:41;-18534.78;;;11.24;77.38
60583;BME280;46415;47.536;19.066;2023-05-02T02:07:45;-18531.78;;;11.13;80.11
60583;BME280;46415;47.536;19.066;2023-05-02T02:10:53;-18528.38;;;11.00;81.40
60583;BME280;46415;47.536;19.066;2023-05-02T02:14:06;-18526.31;;;10.93;81.58
60583;BME280;46415;47.536;19.066;2023-05-02T02:17:17;-18525.75;;;10.91;83.21
60583;BME280;46415;47.536;19.066;2023-05-02T02:20:27;-18522.88;;;10.80;83.26
60583;BME280;46415;47.536;19.066;2023-05-02T02:23:32;-18522.47;;;10.79;84.35
60583;BME280;46415;47.536;19.066;2023-05-02T02:26:36;-18522.19;;;10.78;86.89
60583;BME280;46415;47.536;19.066;2023-05-02T02:29:39;-18519.88;;;10.69;88.15
60583;BME280;46415;47.536;19.066;2023-05-02T02:32:42;-18519.88;;;10.69;89.53
60583;BME280;46415;47.536;19.066;2023-05-02T02:35:53;-18517.41;;;10.60;92.25
60583;BME280;46415;47.536;19.066;2023-05-02T02:42:11;-18513.72;;;10.46;94.53
60583;BME280;46415;47.536;19.066;2023-05-02T02:46:24;-18512.22;;;10.41;95.24
60583;BME280;46415;47.536;19.066;2023-05-02T02:48:56;-18508.09;;;10.26;97.53
60583;BME280;46415;47.536;19.066;2023-05-02T02:52:09;-18505.50;;;10.16;99.00
60583;BME280;46415;47.536;19.066;2023-05-02T02:55:21;-18503.97;;;10.10;100.00
60583;BME280;46415;47.536;19.066;2023-05-02T02:58:52;-18502.47;;;10.05;100.00
60583;BME280;46415;47.536;19.066;2023-05-02T03:02:11;-18500.00;;;9.96;100.00
60583;BME280;46415;47.536;19.066;2023-05-02T03:05:16;-18498.09;;;9.89;100.00
60583;BME280;46415;47.536;19.066;2023-05-02T03:08:19;-18497.28;;;9.86;99.09
60583;BME280;46415;47.536;19.066;2023-05-02T03:11:22;-18497.13;;;9.85;99.12
60583;BME280;46415;47.536;19.066;2023-05-02T03:14:26;-18495.91;;;9.80;99.71
60583;BME280;46415;47.536;19.066;2023-05-02T03:17:28;-18493.72;;;9.72;100.00
60583;BME280;46415;47.536;19.066;2023-05-02T03:20:31;-18493.16;;;9.70;100.00
60583;BME280;46415;47.536;19.066;2023-05-02T03:23:35;-18491.38;;;9.64;100.00
60583;BME280;46415;47.536;19.066;2023-05-02T03:26:37;-18490.84;;;9.62;100.00
60583;BME280;46415;47.536;19.066;2023-05-02T03:29:41;-18489.88;;;9.58;100.00
60583;BME280;46415;47.536;19.066;2023-05-02T03:32:44;-18487.81;;;9.51;100.00
60583;BME280;46415;47.536;19.066;2023-05-02T03:35:47;-18487.00;;;9.48;100.00
60583;BME280;46415;47.536;19.066;2023-05-02T03:38:50;-18488.38;;;9.53;100.00
60583;BME280;46415;47.536;19.066;2023-05-02T03:41:54;-18488.22;;;9.52;100.00
60583;BME280;46415;47.536;19.066;2023-05-02T03:44:58;-18487.81;;;9.51;100.00
60583;BME280;46415;47.536;19.066;2023-05-02T03:48:01;-18488.38;;;9.53;100.00
60583;BME280;46415;47.536;19.066;2023-05-02T03:51:05;-18490.28;;;9.60;100.00
60583;BME280;46415;47.536;19.066;2023-05-02T03:54:12;-18491.09;;;9.63;100.00
60583;BME280;46415;47.536;19.066;2023-05-02T03:57:15;-18491.94;;;9.66;100.00
60583;BME280;46415;47.536;19.066;2023-05-02T04:00:18;-18491.38;;;9.64;100.00
60583;BME280;46415;47.536;19.066;2023-05-02T04:03:22;-18492.19;;;9.67;100.00
60583;BME280;46415;47.536;19.066;2023-05-02T04:06:25;-18494.41;;;9.75;100.00
60583;BME280;46415;47.536;19.066;2023-05-02T04:09:30;-18498.38;;;9.90;99.06
60583;BME280;46415;47.536;19.066;2023-05-02T04:12:33;-18500.00;;;9.96;98.40
60583;BME280;46415;47.536;19.066;2023-05-02T04:15:37;-18500.56;;;9.98;99.38
60583;BME280;46415;47.536;19.066;2023-05-02T04:18:40;-18501.25;;;10.00;100.00
60583;BME280;46415;47.536;19.066;2023-05-02T04:21:44;-18502.47;;;10.05;97.85
60583;BME280;46415;47.536;19.066;2023-05-02T04:24:47;-18504.66;;;10.13;96.71
60583;BME280;46415;47.536;19.066;2023-05-02T04:27:50;-18506.88;;;10.21;95.48
60583;BME280;46415;47.536;19.066;2023-05-02T04:30:55;-18508.38;;;10.27;95.82
60583;BME280;46415;47.536;19.066;2023-05-02T04:33:58;-18511.25;;;10.37;98.16
60583;BME280;46415;47.536;19.066;2023-05-02T04:37:03;-18513.84;;;10.47;96.36
60583;BME280;46415;47.536;19.066;2023-05-02T04:40:06;-18518.91;;;10.66;96.64
60583;BME280;46415;47.536;19.066;2023-05-02T04:43:10;-18525.06;;;10.88;94.54
60583;BME280;46415;47.536;19.066;2023-05-02T04:46:15;-18531.09;;;11.11;93.23
60583;BME280;46415;47.536;19.066;2023-05-02T04:49:18;-18536.03;;;11.29;90.73
60583;BME280;46415;47.536;19.066;2023-05-02T04:52:21;-18542.59;;;11.53;89.23
60583;BME280;46415;47.536;19.066;2023-05-02T04:55:24;-18543.56;;;11.57;89.53
60583;BME280;46415;47.536;19.066;2023-05-02T04:58:27;-18543.13;;;11.55;89.71
60583;BME280;46415;47.536;19.066;2023-05-02T05:01:31;-18543.41;;;11.56;90.66
60583;BME280;46415;47.536;19.066;2023-05-02T05:04:35;-18548.47;;;11.75;90.24
60583;BME280;46415;47.536;19.066;2023-05-02T05:07:38;-18554.38;;;11.97;86.72
60583;BME280;46415;47.536;19.066;2023-05-02T05:10:44;-18560.50;;;12.19;84.56
60583;BME280;46415;47.536;19.066;2023-05-02T05:13:48;-18565.84;;;12.39;81.89
60583;BME280;46415;47.536;19.066;2023-05-02T05:16:52;-18572.69;;;12.64;80.98
60583;BME280;46415;47.536;19.066;2023-05-02T05:19:56;-18575.41;;;12.75;80.04
60583;BME280;46415;47.536;19.066;2023-05-02T05:22:59;-18579.25;;;12.89;78.92
60583;BME280;46415;47.536;19.066;2023-05-02T05:26:15;-18579.78;;;12.91;77.36
60583;BME280;46415;47.536;19.066;2023-05-02T05:29:18;-18585.25;;;13.11;74.05
60583;BME280;46415;47.536;19.066;2023-05-02T05:32:22;-18587.84;;;13.21;74.05
60583;BME280;46415;47.536;19.066;2023-05-02T05:35:25;-18593.44;;;13.41;73.59
60583;BME280;46415;47.536;19.066;2023-05-02T05:38:29;-18598.38;;;13.60;74.08
60583;BME280;46415;47.536;19.066;2023-05-02T05:41:33;-18604.66;;;13.83;72.75
60583;BME280;46415;47.536;19.066;2023-05-02T05:44:37;-18611.06;;;14.07;72.51
60583;BME280;46415;47.536;19.066;2023-05-02T05:47:40;-18612.31;;;14.11;70.77
60583;BME280;46415;47.536;19.066;2023-05-02T05:50:43;-18615.56;;;14.23;71.12
60583;BME280;46415;47.536;19.066;2023-05-02T05:53:47;-18620.63;;;14.42;70.24
60583;BME280;46415;47.536;19.066;2023-05-02T05:56:50;-18620.75;;;14.43;72.04
60583;BME280;46415;47.536;19.066;2023-05-02T05:59:54;-18624.19;;;14.55;70.32
60583;BME280;46415;47.536;19.066;2023-05-02T06:02:57;-18628.00;;;14.69;69.98
60583;BME280;46415;47.536;19.066;2023-05-02T06:06:00;-18631.41;;;14.82;67.16
60583;BME280;46415;47.536;19.066;2023-05-02T06:09:03;-18632.09;;;14.85;67.79
60583;BME280;46415;47.536;19.066;2023-05-02T06:12:07;-18641.09;;;15.18;66.52
60583;BME280;46415;47.536;19.066;2023-05-02T06:15:10;-18647.78;;;15.43;64.94
60583;BME280;46415;47.536;19.066;2023-05-02T06:18:14;-18648.19;;;15.44;66.57
60583;BME280;46415;47.536;19.066;2023-05-02T06:21:17;-18652.69;;;15.61;65.79
60583;BME280;46415;47.536;19.066;2023-05-02T06:24:20;-18656.91;;;15.77;66.13
60583;BME280;46415;47.536;19.066;2023-05-02T06:27:23;-18661.97;;;15.96;62.93
60583;BME280;46415;47.536;19.066;2023-05-02T06:30:27;-18653.91;;;15.66;65.49
60583;BME280;46415;47.536;19.066;2023-05-02T06:33:31;-18660.31;;;15.89;65.50
60583;BME280;46415;47.536;19.066;2023-05-02T06:36:34;-18661.00;;;15.92;66.74
60583;BME280;46415;47.536;19.066;2023-05-02T06:39:37;-18670.00;;;16.25;65.55
60583;BME280;46415;47.536;19.066;2023-05-02T06:42:40;-18673.41;;;16.38;64.12
60583;BME280;46415;47.536;19.066;2023-05-02T06:45:43;-18678.84;;;16.58;63.58
60583;BME280;46415;47.536;19.066;2023-05-02T06:48:47;-18684.72;;;16.80;60.70
60583;BME280;46415;47.536;19.066;2023-05-02T06:51:49;-18690.56;;;17.02;61.21
60583;BME280;46415;47.536;19.066;2023-05-02T06:54:52;-18688.13;;;16.93;60.26
60583;BME280;46415;47.536;19.066;2023-05-02T06:57:55;-18687.84;;;16.92;60.78
60583;BME280;46415;47.536;19.066;2023-05-02T07:00:58;-18683.47;;;16.76;60.71
60583;BME280;46415;47.536;19.066;2023-05-02T07:04:01;-18689.75;;;16.99;61.43
60583;BME280;46415;47.536;19.066;2023-05-02T07:07:07;-18699.81;;;17.36;57.52
60583;BME280;46415;47.536;19.066;2023-05-02T07:10:11;-18707.44;;;17.65;55.72
60583;BME280;46415;47.536;19.066;2023-05-02T07:13:14;-18717.94;;;18.04;54.59
60583;BME280;46415;47.536;19.066;2023-05-02T07:16:17;-18722.81;;;18.22;52.68
60583;BME280;46415;47.536;19.066;2023-05-02T07:19:20;-18725.69;;;18.32;52.65
60583;BME280;46415;47.536;19.066;2023-05-02T07:22:22;-18727.03;;;18.37;52.71
60583;BME280;46415;47.536;19.066;2023-05-02T07:25:26;-18730.31;;;18.50;52.33
60583;BME280;46415;47.536;19.066;2023-05-02T07:28:29;-18735.75;;;18.70;51.76
60583;BME280;46415;47.536;19.066;2023-05-02T07:31:32;-18742.28;;;18.94;50.67
60583;BME280;46415;47.536;19.066;2023-05-02T07:34:35;-18748.94;;;19.19;49.94
60583;BME280;46415;47.536;19.066;2023-05-02T07:37:38;-18755.84;;;19.45;49.01
60583;BME280;46415;47.536;19.066;2023-05-02T07:40:44;-18753.53;;;19.36;47.82
60583;BME280;46415;47.536;19.066;2023-05-02T07:43:48;-18760.34;;;19.62;47.73
60583;BME280;46415;47.536;19.066;2023-05-02T07:46:51;-18759.38;;;19.58;47.24
60583;BME280;46415;47.536;19.066;2023-05-02T07:49:55;-18766.84;;;19.86;47.51
60583;BME280;46415;47.536;19.066;2023-05-02T07:52:57;-18770.38;;;19.99;46.83
60583;BME280;46415;47.536;19.066;2023-05-02T07:56:03;-18770.53;;;20.00;46.42
60583;BME280;46415;47.536;19.066;2023-05-02T07:59:08;-18768.22;;;19.91;47.79
60583;BME280;46415;47.536;19.066;2023-05-02T08:02:11;-18769.44;;;19.95;46.77
60583;BME280;46415;47.536;19.066;2023-05-02T08:05:16;-18773.50;;;20.11;45.99
60583;BME280;46415;47.536;19.066;2023-05-02T08:08:19;-18769.16;;;19.94;46.27
60583;BME280;46415;47.536;19.066;2023-05-02T08:11:22;-18773.91;;;20.12;46.06
60583;BME280;46415;47.536;19.066;2023-05-02T08:14:27;-18775.81;;;20.19;45.81
60583;BME280;46415;47.536;19.066;2023-05-02T08:17:30;-18777.72;;;20.26;47.92
60583;BME280;46415;47.536;19.066;2023-05-02T08:20:33;-18782.22;;;20.43;45.58
60583;BME280;46415;47.536;19.066;2023-05-02T08:23:36;-18782.59;;;20.45;45.25
60583;BME280;46415;47.536;19.066;2023-05-02T08:26:40;-18786.69;;;20.60;45.39
60583;BME280;46415;47.536;19.066;2023-05-02T08:29:43;-18781.13;;;20.39;44.97
60583;BME280;46415;47.536;19.066;2023-05-02T08:32:46;-18781.38;;;20.40;44.91
60583;BME280;46415;47.536;19.066;2023-05-02T08:35:49;-18782.22;;;20.43;45.43
60583;BME280;46415;47.536;19.066;2023-05-02T08:38:52;-18793.06;;;20.84;44.55
60583;BME280;46415;47.536;19.066;2023-05-02T08:41:55;-18804.59;;;21.27;43.78
60583;BME280;46415;47.536;19.066;2023-05-02T08:44:59;-18795.78;;;20.94;43.83
60583;BME280;46415;47.536;19.066;2023-05-02T08:48:06;-18795.91;;;20.94;43.89
60583;BME280;46415;47.536;19.066;2023-05-02T08:51:13;-18796.31;;;20.96;44.39
60583;BME280;46415;47.536;19.066;2023-05-02T08:54:17;-18799.56;;;21.08;43.45
60583;BME280;46415;47.536;19.066;2023-05-02T08:57:21;-18803.63;;;21.23;43.22
60583;BME280;46415;47.536;19.066;2023-05-02T09:00:27;-18810.41;;;21.48;42.50
60583;BME280;46415;47.536;19.066;2023-05-02T09:03:35;-18808.53;;;21.41;42.20
60583;BME280;46415;47.536;19.066;2023-05-02T09:06:38;-18811.78;;;21.53;42.45
60583;BME280;46415;47.536;19.066;2023-05-02T09:09:40;-18821.00;;;21.88;41.17
60583;BME280;46415;47.536;19.066;2023-05-02T09:12:43;-18825.19;;;22.04;41.17
60583;BME280;46415;47.536;19.066;2023-05-02T09:19:08;-18823.56;;;21.97;40.95
60583;BME280;46415;47.536;19.066;2023-05-02T09:22:21;-18819.09;;;21.81;41.30
60583;BME280;46415;47.536;19.066;2023-05-02T09:25:25;-18818.16;;;21.77;41.08
60583;BME280;46415;47.536;19.066;2023-05-02T09:28:39;-18822.63;;;21.94;40.37
60583;BME280;46415;47.536;19.066;2023-05-02T09:31:45;-18835.63;;;22.43;39.88
60583;BME280;46415;47.536;19.066;2023-05-02T09:35:05;-18845.94;;;22.81;38.88
60583;BME280;46415;47.536;19.066;2023-05-02T09:38:18;-18853.50;;;23.09;39.17
60583;BME280;46415;47.536;19.066;2023-05-02T09:41:22;-18858.50;;;23.28;37.34
60583;BME280;46415;47.536;19.066;2023-05-02T09:44:35;-18855.94;;;23.18;37.97
60583;BME280;46415;47.536;19.066;2023-05-02T09:47:40;-18860.41;;;23.35;38.05
60583;BME280;46415;47.536;19.066;2023-05-02T09:50:43;-18863.53;;;23.47;37.38
60583;BME280;46415;47.536;19.066;2023-05-02T09:53:46;-18860.00;;;23.34;37.60
60583;BME280;46415;47.536;19.066;2023-05-02T09:56:56;-18867.16;;;23.60;37.23
60583;BME280;46415;47.536;19.066;2023-05-02T09:59:59;-18875.16;;;23.90;35.98
60583;BME280;46415;47.536;19.066;2023-05-02T10:03:07;-18877.84;;;24.00;36.08
60583;BME280;46415;47.536;19.066;2023-05-02T10:06:11;-18895.69;;;24.67;35.82
60583;BME280;46415;47.536;19.066;2023-05-02T10:09:15;-18899.34;;;24.81;34.54
60583;BME280;46415;47.536;19.066;2023-05-02T10:12:25;-18897.31;;;24.73;35.26
60583;BME280;46415;47.536;19.066;2023-05-02T10:15:33;-18890.31;;;24.47;35.84
60583;BME280;46415;47.536;19.066;2023-05-02T10:19:09;-18887.59;;;24.37;35.13
60583;BME280;46415;47.536;19.066;2023-05-02T10:22:18;-18896.50;;;24.70;35.53
60583;BME280;46415;47.536;19.066;2023-05-02T10:25:21;-18893.53;;;24.59;35.14
60583;BME280;46415;47.536;19.066;2023-05-02T10:28:26;-18896.50;;;24.70;36.05
60583;BME280;46415;47.536;19.066;2023-05-02T10:31:33;-18901.53;;;24.89;35.34
60583;BME280;46415;47.536;19.066;2023-05-02T10:34:38;-18898.69;;;24.78;34.57
60583;BME280;46415;47.536;19.066;2023-05-02T10:37:42;-18891.09;;;24.50;34.65
60583;BME280;46415;47.536;19.066;2023-05-02T10:40:54;-18883.28;;;24.21;34.55
60583;BME280;46415;47.536;19.066;2023-05-02T10:43:58;-18879.75;;;24.08;36.16
60583;BME280;46415;47.536;19.066;2023-05-02T10:50:41;-18894.34;;;24.62;34.90
60583;BME280;46415;47.536;19.066;2023-05-02T10:53:45;-18888.94;;;24.42;35.41
60583;BME280;46415;47.536;19.066;2023-05-02T10:57:06;-18884.62;;;24.26;35.95
60583;BME280;46415;47.536;19.066;2023-05-02T11:00:23;-18898.81;;;24.79;35.19
60583;BME280;46415;47.536;19.066;2023-05-02T11:13:48;-18927.72;;;25.87;33.88
60583;BME280;46415;47.536;19.066;2023-05-02T11:17:09;-18937.28;;;26.23;33.55
60583;BME280;46415;47.536;19.066;2023-05-02T11:26:21;-18929.75;;;25.95;33.77
60583;BME280;46415;47.536;19.066;2023-05-02T11:29:53;-18916.63;;;25.46;34.53
60583;BME280;46415;47.536;19.066;2023-05-02T11:36:01;-18885.97;;;24.31;36.10
60583;BME280;46415;47.536;19.066;2023-05-02T11:39:17;-18885.56;;;24.29;35.84
60583;BME280;46415;47.536;19.066;2023-05-02T11:42:28;-18891.09;;;24.50;36.07
60583;BME280;46415;47.536;19.066;2023-05-02T11:45:36;-18895.44;;;24.66;36.19
60583;BME280;46415;47.536;19.066;2023-05-02T11:48:41;-18912.72;;;25.31;35.65
60583;BME280;46415;47.536;19.066;2023-05-02T11:51:43;-18930.41;;;25.97;34.01
60583;BME280;46415;47.536;19.066;2023-05-02T11:54:47;-18927.03;;;25.85;34.58
60583;BME280;46415;47.536;19.066;2023-05-02T11:57:50;-18937.28;;;26.23;34.10
60583;BME280;46415;47.536;19.066;2023-05-02T12:00:54;-18950.25;;;26.72;33.67
60583;BME280;46415;47.536;19.066;2023-05-02T12:04:06;-18941.88;;;26.40;32.60
60583;BME280;46415;47.536;19.066;2023-05-02T12:07:09;-18933.66;;;26.10;32.58
60583;BME280;46415;47.536;19.066;2023-05-02T12:10:14;-18929.47;;;25.94;33.76
60583;BME280;46415;47.536;19.066;2023-05-02T12:13:19;-18937.56;;;26.24;33.06
60583;BME280;46415;47.536;19.066;2023-05-02T12:16:22;-18930.28;;;25.97;33.74
60583;BME280;46415;47.536;19.066;2023-05-02T12:19:25;-18940.25;;;26.34;33.06
60583;BME280;46415;47.536;19.066;2023-05-02T12:22:30;-18944.03;;;26.49;31.99
60583;BME280;46415;47.536;19.066;2023-05-02T12:25:37;-18941.47;;;26.39;32.60
60583;BME280;46415;47.536;19.066;2023-05-02T12:28:48;-18943.22;;;26.46;31.78
60583;BME280;46415;47.536;19.066;2023-05-02T12:31:51;-18939.88;;;26.33;31.63
60583;BME280;46415;47.536;19.066;2023-05-02T12:34:55;-18937.56;;;26.24;32.56
60583;BME280;46415;47.536;19.066;2023-05-02T12:38:14;-18942.41;;;26.42;31.60
60583;BME280;46415;47.536;19.066;2023-05-02T12:41:35;-18951.19;;;26.75;31.12
60583;BME280;46415;47.536;19.066;2023-05-02T12:44:40;-18949.56;;;26.69;30.43
60583;BME280;46415;47.536;19.066;2023-05-02T12:47:43;-18939.72;;;26.32;30.57
60583;BME280;46415;47.536;19.066;2023-05-02T12:50:48;-18943.63;;;26.47;30.44
60583;BME280;46415;47.536;19.066;2023-05-02T12:53:51;-18949.84;;;26.70;29.77
60583;BME280;46415;47.536;19.066;2023-05-02T12:56:54;-18945.94;;;26.56;30.15
60583;BME280;46415;47.536;19.066;2023-05-02T12:59:57;-18941.22;;;26.38;29.79
60583;BME280;46415;47.536;19.066;2023-05-02T13:03:00;-18940.00;;;26.33;29.93
60583;BME280;46415;47.536;19.066;2023-05-02T13:06:03;-18944.72;;;26.51;29.52
60583;BME280;46415;47.536;19.066;2023-05-02T13:09:06;-18949.31;;;26.68;29.59
60583;BME280;46415;47.536;19.066;2023-05-02T13:12:09;-18942.41;;;26.42;29.80
60583;BME280;46415;47.536;19.066;2023-05-02T13:15:12;-18936.75;;;26.21;29.80
60583;BME280;46415;47.536;19.066;2023-05-02T13:18:16;-18934.31;;;26.12;30.84
60583;BME280;46415;47.536;19.066;2023-05-02T13:21:18;-18923.13;;;25.70;31.26
60583;BME280;46415;47.536;19.066;2023-05-02T13:24:21;-18923.81;;;25.73;32.19
60583;BME280;46415;47.536;19.066;2023-05-02T13:27:24;-18909.50;;;25.19;32.19
60583;BME280;46415;47.536;19.066;2023-05-02T13:30:27;-18905.44;;;25.04;32.70
60583;BME280;46415;47.536;19.066;2023-05-02T13:33:30;-18899.34;;;24.81;33.07
60583;BME280;46415;47.536;19.066;2023-05-02T13:36:33;-18891.38;;;24.51;33.95
60583;BME280;46415;47.536;19.066;2023-05-02T13:39:37;-18882.88;;;24.19;34.98
60583;BME280;46415;47.536;19.066;2023-05-02T13:42:41;-18877.03;;;23.97;34.58
60583;BME280;46415;47.536;19.066;2023-05-02T13:45:43;-18875.56;;;23.92;34.11
60583;BME280;46415;47.536;19.066;2023-05-02T13:48:49;-18869.75;;;23.70;34.77
60583;BME280;46415;47.536;19.066;2023-05-02T13:51:51;-18873.94;;;23.86;35.07
60583;BME280;46415;47.536;19.066;2023-05-02T13:54:55;-18880.16;;;24.09;35.58
60583;BME280;46415;47.536;19.066;2023-05-02T13:57:58;-18883.28;;;24.21;34.54
60583;BME280;46415;47.536;19.066;2023-05-02T14:01:01;-18881.91;;;24.16;33.49
60583;BME280;46415;47.536;19.066;2023-05-02T14:04:04;-18880.84;;;24.12;34.38
60583;BME280;46415;47.536;19.066;2023-05-02T14:07:10;-18878.00;;;24.01;34.86
60583;BME280;46415;47.536;19.066;2023-05-02T14:10:13;-18876.50;;;23.95;35.12
60583;BME280;46415;47.536;19.066;2023-05-02T14:13:15;-18875.97;;;23.93;35.40
60583;BME280;46415;47.536;19.066;2023-05-02T14:16:18;-18870.28;;;23.72;35.27
60583;BME280;46415;47.536;19.066;2023-05-02T14:19:21;-18868.25;;;23.65;36.51
60583;BME280;46415;47.536;19.066;2023-05-02T14:22:24;-18866.22;;;23.57;36.02
60583;BME280;46415;47.536;19.066;2023-05-02T14:25:27;-18860.66;;;23.36;36.99
60583;BME280;46415;47.536;19.066;2023-05-02T14:28:30;-18856.63;;;23.21;37.13
60583;BME280;46415;47.536;19.066;2023-05-02T14:31:47;-18855.53;;;23.17;37.37
60583;BME280;46415;47.536;19.066;2023-05-02T14:34:50;-18858.38;;;23.28;37.30
60583;BME280;46415;47.536;19.066;2023-05-02T14:37:53;-18859.72;;;23.33;36.23
60583;BME280;46415;47.536;19.066;2023-05-02T14:40:56;-18864.06;;;23.49;35.90
60583;BME280;46415;47.536;19.066;2023-05-02T14:43:58;-18869.75;;;23.70;34.79
60583;BME280;46415;47.536;19.066;2023-05-02T14:47:01;-18872.19;;;23.79;35.32
60583;BME280;46415;47.536;19.066;2023-05-02T14:50:05;-18878.13;;;24.01;34.15
60583;BME280;46415;47.536;19.066;2023-05-02T14:53:08;-18875.00;;;23.90;33.57
60583;BME280;46415;47.536;19.066;2023-05-02T14:56:12;-18870.28;;;23.72;34.19
60583;BME280;46415;47.536;19.066;2023-05-02T14:59:17;-18868.13;;;23.64;35.12
60583;BME280;46415;47.536;19.066;2023-05-02T15:02:20;-18866.37;;;23.57;35.09
60583;BME280;46415;47.536;19.066;2023-05-02T15:05:23;-18868.94;;;23.67;34.47
60583;BME280;46415;47.536;19.066;2023-05-02T15:08:26;-18867.84;;;23.63;34.83
60583;BME280;46415;47.536;19.066;2023-05-02T15:11:29;-18865.56;;;23.54;35.02
60583;BME280;46415;47.536;19.066;2023-05-02T15:14:32;-18865.16;;;23.53;35.28
60583;BME280;46415;47.536;19.066;2023-05-02T15:17:35;-18862.16;;;23.42;35.68
60583;BME280;46415;47.536;19.066;2023-05-02T15:20:37;-18857.03;;;23.23;35.44
60583;BME280;46415;47.536;19.066;2023-05-02T15:23:40;-18854.31;;;23.12;35.94
60583;BME280;46415;47.536;19.066;2023-05-02T15:26:43;-18849.03;;;22.93;36.49
60583;BME280;46415;47.536;19.066;2023-05-02T15:29:47;-18847.16;;;22.86;36.99
60583;BME280;46415;47.536;19.066;2023-05-02T15:32:49;-18848.09;;;22.89;36.39
60583;BME280;46415;47.536;19.066;2023-05-02T15:35:54;-18850.94;;;23.00;36.62
60583;BME280;46415;47.536;19.066;2023-05-02T15:38:57;-18854.03;;;23.11;36.47
60583;BME280;46415;47.536;19.066;2023-05-02T15:42:03;-18857.97;;;23.26;36.17
60583;BME280;46415;47.536;19.066;2023-05-02T15:45:06;-18862.56;;;23.43;36.03
60583;BME280;46415;47.536;19.066;2023-05-02T15:48:09;-18866.22;;;23.57;35.24
60583;BME280;46415;47.536;19.066;2023-05-02T15:51:12;-18866.22;;;23.57;35.52
60583;BME280;46415;47.536;19.066;2023-05-02T15:54:15;-18868.00;;;23.64;35.31
60583;BME280;46415;47.536;19.066;2023-05-02T15:57:21;-18863.38;;;23.46;35.53
60583;BME280;46415;47.536;19.066;2023-05-02T16:00:24;-18861.91;;;23.41;35.41
60583;BME280;46415;47.536;19.066;2023-05-02T16:03:28;-18860.00;;;23.34;35.82
60583;BME280;46415;47.536;19.066;2023-05-02T16:06:32;-18858.78;;;23.29;36.48
60583;BME280;46415;47.536;19.066;2023-05-02T16:09:36;-18862.03;;;23.41;35.87
60583;BME280;46415;47.536;19.066;2023-05-02T16:12:39;-18861.62;;;23.40;36.73
60583;BME280;46415;47.536;19.066;2023-05-02T16:15:42;-18859.31;;;23.31;36.70
60583;BME280;46415;47.536;19.066;2023-05-02T16:18:44;-18858.66;;;23.29;37.03
60583;BME280;46415;47.536;19.066;2023-05-02T16:21:47;-18855.00;;;23.15;36.95
60583;BME280;46415;47.536;19.066;2023-05-02T16:24:50;-18852.81;;;23.07;36.42
60583;BME280;46415;47.536;19.066;2023-05-02T16:27:53;-18855.41;;;23.16;37.28